createdAt,value
2022-11-21T00:00:45.892Z,5.47
2022-11-21T00:03:14.467Z,5.73
2022-11-21T00:05:42.503Z,6.77
2022-11-21T00:08:10.179Z,6.17
2022-11-21T00:10:38.025Z,7.13
2022-11-21T00:13:05.788Z,5.80
2022-11-21T00:15:33.770Z,6.00
2022-11-21T00:18:02.634Z,7.40
2022-11-21T00:20:31.379Z,7.50
2022-11-21T00:22:58.452Z,7.90
2022-11-21T00:25:25.576Z,8.00
2022-11-21T00:27:53.137Z,7.63
2022-11-21T00:30:20.318Z,8.00
2022-11-21T00:32:47.395Z,7.87
2022-11-21T00:35:14.503Z,13.23
2022-11-21T00:37:42.923Z,14.50
2022-11-21T00:40:10.752Z,14.20
2022-11-21T00:42:37.851Z,13.70
2022-11-21T00:45:05.417Z,15.80
2022-11-21T00:47:32.499Z,16.00
2022-11-21T00:49:59.617Z,16.17
2022-11-21T00:52:26.704Z,16.53
2022-11-21T00:54:55.142Z,16.30
2022-11-21T00:57:22.218Z,17.43
2022-11-21T00:59:49.337Z,18.87
2022-11-21T01:02:16.410Z,16.77
2022-11-21T01:04:43.551Z,16.87
2022-11-21T01:07:10.703Z,16.00
2022-11-21T01:09:37.830Z,18.30
2022-11-21T01:12:06.584Z,15.37
2022-11-21T01:14:33.673Z,18.00
2022-11-21T01:17:00.761Z,18.23
2022-11-21T01:19:27.952Z,17.20
2022-11-21T01:21:55.029Z,17.27
2022-11-21T01:24:22.115Z,18.50
2022-11-21T01:26:49.225Z,19.47
2022-11-21T01:29:17.760Z,20.73
2022-11-21T01:31:44.856Z,20.20
2022-11-21T01:34:12.116Z,21.47
2022-11-21T01:36:39.199Z,21.70
2022-11-21T01:39:07.197Z,22.40
2022-11-21T01:41:35.283Z,21.50
2022-11-21T01:44:02.856Z,22.20
2022-11-21T01:46:31.309Z,23.73
2022-11-21T01:49:00.966Z,26.23
2022-11-21T01:51:30.098Z,25.87
2022-11-21T01:53:59.525Z,26.33
2022-11-21T01:56:27.728Z,27.53
2022-11-21T01:58:57.010Z,25.17
2022-11-21T02:01:24.171Z,25.00
2022-11-21T02:03:55.562Z,27.50
2022-11-21T02:06:24.049Z,26.00
2022-11-21T02:08:51.419Z,26.17
2022-11-21T02:11:21.706Z,24.87
2022-11-21T02:13:48.837Z,26.10
2022-11-21T02:16:16.038Z,26.13
2022-11-21T02:18:43.112Z,28.70
2022-11-21T02:21:14.480Z,28.83
2022-11-21T02:23:45.705Z,28.00
2022-11-21T02:26:14.210Z,30.37
2022-11-21T02:28:41.625Z,30.07
2022-11-21T02:31:08.724Z,30.13
2022-11-21T02:33:35.860Z,30.00
2022-11-21T02:36:02.969Z,29.67
2022-11-21T02:38:31.569Z,28.47
2022-11-21T02:41:02.459Z,29.60
2022-11-21T02:43:32.216Z,30.70
2022-11-21T02:45:59.305Z,28.63
2022-11-21T02:48:26.428Z,30.93
2022-11-21T02:50:53.520Z,28.80
2022-11-21T02:53:20.707Z,30.57
2022-11-21T02:55:47.902Z,29.80
2022-11-21T02:58:15.239Z,31.60
2022-11-21T03:00:43.719Z,30.60
2022-11-21T03:03:10.897Z,31.23
2022-11-21T03:05:38.497Z,30.43
2022-11-21T03:08:06.083Z,29.27
2022-11-21T03:10:33.494Z,31.00
2022-11-21T03:13:01.365Z,30.87
2022-11-21T03:15:29.549Z,29.70
2022-11-21T03:17:58.450Z,29.87
2022-11-21T03:20:25.646Z,30.10
2022-11-21T03:22:52.763Z,30.63
2022-11-21T03:25:19.896Z,30.97
2022-11-21T03:27:46.993Z,31.67
2022-11-21T03:30:14.328Z,31.03
2022-11-21T03:32:41.415Z,29.57
2022-11-21T03:35:10.093Z,30.77
2022-11-21T03:37:37.183Z,28.40
2022-11-21T03:40:04.621Z,31.37
2022-11-21T03:42:31.701Z,29.93
2022-11-21T03:44:58.795Z,30.57
2022-11-21T03:47:25.866Z,29.93
2022-11-21T03:49:52.972Z,31.03
2022-11-21T03:52:21.484Z,30.10
2022-11-21T03:54:48.680Z,30.40
2022-11-21T03:57:15.769Z,29.87
2022-11-21T03:59:42.843Z,32.57
2022-11-21T04:02:09.932Z,31.00
2022-11-21T04:04:36.995Z,29.73
2022-11-21T04:07:04.179Z,32.37
2022-11-21T04:09:32.715Z,30.90
2022-11-21T04:12:02.572Z,30.87
2022-11-21T04:14:32.201Z,32.53
2022-11-21T04:16:59.274Z,32.33
2022-11-21T04:19:26.368Z,28.33
2022-11-21T04:21:53.428Z,31.93
2022-11-21T04:24:20.536Z,34.57
2022-11-21T04:26:48.934Z,29.20
2022-11-21T04:29:16.056Z,32.70
2022-11-21T04:31:43.208Z,31.97
2022-11-21T04:34:10.358Z,30.97
2022-11-21T04:36:37.518Z,30.17
2022-11-21T04:39:04.773Z,30.33
2022-11-21T04:41:31.864Z,30.93
2022-11-21T04:44:00.281Z,32.60
2022-11-21T04:46:27.408Z,31.93
2022-11-21T04:48:54.514Z,29.47
2022-11-21T04:51:21.576Z,28.93
2022-11-21T04:53:48.685Z,30.83
2022-11-21T04:56:15.844Z,28.77
2022-11-21T04:58:43.004Z,32.57
2022-11-21T05:01:11.484Z,31.13
2022-11-21T05:03:38.595Z,32.53
2022-11-21T05:06:05.749Z,32.50
2022-11-21T05:08:32.839Z,31.07
2022-11-21T05:10:59.927Z,29.57
2022-11-21T05:13:27.006Z,29.17
2022-11-21T05:15:57.097Z,28.30
2022-11-21T05:18:25.539Z,29.00
2022-11-21T05:20:52.640Z,28.90
2022-11-21T05:23:19.720Z,31.40
2022-11-21T05:25:46.812Z,28.60
2022-11-21T05:28:13.956Z,30.57
2022-11-21T05:30:41.026Z,29.00
2022-11-21T05:33:08.138Z,30.13
2022-11-21T05:35:41.635Z,30.90
2022-11-21T05:38:10.168Z,29.63
2022-11-21T05:40:37.270Z,31.67
2022-11-21T05:43:04.363Z,32.57
2022-11-21T05:45:31.776Z,32.40
2022-11-21T05:47:58.896Z,33.40
2022-11-21T05:50:26.051Z,31.23
2022-11-21T05:52:54.513Z,33.17
2022-11-21T05:55:21.591Z,35.93
2022-11-21T05:57:48.688Z,32.30
2022-11-21T06:00:16.400Z,31.33
2022-11-21T06:02:43.539Z,34.60
2022-11-21T06:05:10.695Z,34.70
2022-11-21T06:07:37.803Z,34.30
2022-11-21T06:10:06.771Z,35.77
2022-11-21T06:12:33.862Z,33.87
2022-11-21T06:15:00.954Z,34.43
2022-11-21T06:17:28.108Z,35.90
2022-11-21T06:19:55.155Z,33.60
2022-11-21T06:22:22.252Z,32.93
2022-11-21T06:24:49.349Z,33.07
2022-11-21T06:27:17.833Z,32.97
2022-11-21T06:29:44.955Z,31.60
2022-11-21T06:32:12.094Z,32.70
2022-11-21T06:34:39.188Z,32.97
2022-11-21T06:37:06.454Z,31.73
2022-11-21T06:39:33.569Z,31.70
2022-11-21T06:42:01.858Z,32.50
2022-11-21T06:44:30.495Z,33.87
2022-11-21T06:46:57.811Z,32.83
2022-11-21T06:49:24.888Z,32.67
2022-11-21T06:51:52.002Z,31.23
2022-11-21T06:54:19.094Z,31.00
2022-11-21T06:56:46.201Z,31.00
2022-11-21T06:59:13.295Z,31.33
2022-11-21T07:01:41.778Z,31.43
2022-11-21T07:04:08.940Z,34.23
2022-11-21T07:06:36.050Z,30.30
2022-11-21T07:09:31.648Z,30.43
2022-11-21T07:11:50.211Z,30.80
2022-11-21T07:14:18.099Z,32.63
2022-11-21T07:16:46.568Z,31.80
2022-11-21T07:19:13.656Z,30.97
2022-11-21T07:21:40.740Z,33.40
2022-11-21T07:24:07.875Z,35.67
2022-11-21T07:26:34.961Z,35.30
2022-11-21T07:29:02.038Z,36.80
2022-11-21T07:31:29.139Z,33.30
2022-11-21T07:33:57.599Z,33.40
2022-11-21T07:36:24.705Z,30.93
2022-11-21T07:38:51.873Z,33.27
2022-11-21T07:41:18.986Z,31.73
2022-11-21T07:43:46.075Z,33.67
2022-11-21T07:46:13.151Z,32.50
2022-11-21T07:48:40.268Z,33.70
2022-11-21T07:51:08.710Z,32.30
2022-11-21T07:53:35.780Z,28.90
2022-11-21T07:56:03.023Z,30.00
2022-11-21T07:58:30.106Z,30.87
2022-11-21T08:00:57.244Z,29.53
2022-11-21T08:03:24.367Z,29.23
2022-11-21T08:05:51.432Z,26.43
2022-11-21T08:08:19.876Z,26.83
2022-11-21T08:10:47.028Z,23.37
2022-11-21T08:13:14.683Z,22.37
2022-11-21T08:15:42.040Z,22.63
2022-11-21T08:18:09.846Z,18.93
2022-11-21T08:20:37.252Z,22.47
2022-11-21T08:23:04.427Z,20.67
2022-11-21T08:25:32.898Z,20.57
2022-11-21T08:28:00.101Z,20.20
2022-11-21T08:30:27.168Z,17.57
2022-11-21T08:32:54.300Z,13.90
2022-11-21T08:35:21.487Z,12.80
2022-11-21T08:37:48.566Z,12.93
2022-11-21T08:40:16.068Z,12.10
2022-11-21T08:42:44.539Z,13.10
2022-11-21T08:45:11.640Z,12.50
2022-11-21T08:47:38.740Z,12.70
2022-11-21T08:50:09.042Z,14.00
2022-11-21T08:52:36.443Z,14.77
2022-11-21T08:55:03.561Z,14.03
2022-11-21T08:57:30.678Z,13.50
2022-11-21T08:59:59.128Z,11.77
2022-11-21T09:02:26.229Z,10.93
2022-11-21T09:04:53.322Z,10.27
2022-11-21T09:07:20.555Z,10.17
2022-11-21T09:09:47.688Z,9.80
2022-11-21T09:12:14.792Z,9.30
2022-11-21T09:14:41.948Z,8.57
2022-11-21T09:17:13.942Z,8.83
2022-11-21T09:19:41.034Z,11.23
2022-11-21T09:22:08.119Z,9.57
2022-11-21T09:24:35.237Z,9.37
2022-11-21T09:27:02.308Z,8.80
2022-11-21T09:29:29.767Z,9.27
2022-11-21T09:31:57.036Z,7.87
2022-11-21T09:34:25.633Z,9.00
2022-11-21T09:36:53.103Z,8.83
2022-11-21T09:39:20.205Z,9.00
2022-11-21T09:41:50.288Z,8.73
2022-11-21T09:44:23.939Z,7.47
2022-11-21T09:46:55.433Z,8.90
2022-11-21T09:49:22.788Z,8.20
2022-11-21T09:51:52.210Z,8.03
2022-11-21T09:54:20.495Z,8.50
2022-11-21T09:56:48.397Z,7.73
2022-11-21T09:59:29.432Z,9.93
2022-11-21T10:01:56.618Z,8.50
2022-11-21T10:04:23.819Z,8.63
2022-11-21T10:06:58.532Z,9.10
2022-11-21T10:09:31.135Z,9.07
2022-11-21T10:12:06.738Z,8.40
2022-11-21T10:14:40.137Z,7.83
2022-11-21T10:17:14.269Z,8.20
2022-11-21T10:19:49.981Z,8.53
2022-11-21T10:22:26.957Z,8.53
2022-11-21T10:24:56.320Z,7.70
2022-11-21T10:27:26.743Z,8.80
2022-11-21T10:29:55.676Z,8.43
2022-11-21T10:32:24.932Z,8.03
2022-11-21T10:34:53.785Z,9.20
2022-11-21T10:37:28.166Z,7.73
2022-11-21T10:39:57.287Z,7.80
2022-11-21T10:42:29.596Z,8.30
2022-11-21T10:44:57.349Z,8.50
2022-11-21T10:47:25.248Z,6.60
2022-11-21T10:49:52.369Z,7.97
2022-11-21T10:52:22.669Z,7.70
2022-11-21T10:55:05.564Z,7.87
2022-11-21T10:57:34.439Z,7.60
2022-11-21T11:00:02.719Z,7.40
2022-11-21T11:02:29.826Z,8.50
2022-11-21T11:05:19.314Z,7.97
2022-11-21T11:08:00.042Z,7.83
2022-11-21T11:10:28.753Z,8.13
2022-11-21T11:12:56.377Z,7.90
2022-11-21T11:15:24.838Z,9.43
2022-11-21T11:17:53.120Z,7.70
2022-11-21T11:20:31.278Z,9.40
2022-11-21T11:22:58.416Z,8.30
2022-11-21T11:25:25.524Z,8.07
2022-11-21T11:27:53.971Z,7.70
2022-11-21T11:30:21.077Z,8.80
2022-11-21T11:32:48.169Z,7.40
2022-11-21T11:35:21.864Z,8.30
2022-11-21T11:37:55.571Z,8.23
2022-11-21T11:40:26.388Z,6.90
2022-11-21T11:43:13.593Z,7.90
2022-11-21T11:45:55.888Z,7.40
2022-11-21T11:48:22.998Z,6.60
2022-11-21T11:50:52.204Z,6.93
2022-11-21T11:53:20.636Z,5.23
2022-11-21T11:55:49.243Z,4.50
2022-11-21T11:58:22.344Z,4.47
2022-11-21T12:00:52.248Z,4.23
2022-11-21T12:03:20.473Z,4.30
2022-11-21T12:05:54.693Z,4.63
2022-11-21T12:08:42.513Z,3.50
2022-11-21T12:11:14.318Z,3.13
2022-11-21T12:13:43.313Z,3.20
2022-11-21T12:16:13.726Z,2.53
2022-11-21T12:18:47.096Z,3.47
2022-11-21T12:21:14.748Z,4.37
2022-11-21T12:23:47.053Z,3.73
2022-11-21T12:26:23.666Z,3.90
2022-11-21T12:28:59.928Z,2.93
2022-11-21T12:31:33.703Z,2.97
2022-11-21T12:34:04.755Z,3.63
2022-11-21T12:36:36.249Z,4.00
2022-11-21T12:39:17.634Z,3.57
2022-11-21T12:41:49.175Z,3.70
2022-11-21T12:44:22.848Z,2.90
2022-11-21T12:46:55.449Z,2.50
2022-11-21T12:49:29.171Z,2.73
2022-11-21T12:52:05.427Z,2.70
2022-11-21T12:54:41.689Z,3.17
2022-11-21T12:57:09.952Z,4.00
2022-11-21T12:59:43.342Z,4.77
2022-11-21T13:02:18.206Z,4.27
2022-11-21T13:04:47.080Z,3.70
2022-11-21T13:07:14.670Z,3.47
2022-11-21T13:09:43.885Z,3.70
2022-11-21T13:12:14.281Z,3.20
2022-11-21T13:14:46.252Z,3.20
2022-11-21T13:17:23.909Z,3.03
2022-11-21T13:19:53.579Z,2.17
2022-11-21T13:22:39.477Z,2.40
2022-11-21T13:25:10.099Z,1.80
2022-11-21T13:27:39.128Z,1.60
2022-11-21T13:30:24.994Z,1.50
2022-11-21T13:32:52.751Z,1.57
2022-11-21T13:35:38.228Z,1.57
2022-11-21T13:38:06.215Z,2.23
2022-11-21T13:40:37.592Z,1.63
2022-11-21T13:43:32.650Z,1.80
2022-11-21T13:46:02.557Z,1.70
2022-11-21T13:48:47.267Z,1.60
2022-11-21T13:51:20.065Z,1.67
2022-11-21T13:53:58.498Z,1.57
2022-11-21T13:56:28.461Z,1.97
2022-11-21T13:59:02.248Z,3.10
2022-11-21T14:01:40.347Z,2.30
2022-11-21T14:04:24.002Z,1.20
2022-11-21T14:06:51.185Z,2.00
2022-11-21T14:09:26.065Z,1.90
2022-11-21T14:11:55.290Z,1.73
2022-11-21T14:14:26.570Z,1.70
2022-11-21T14:16:58.982Z,2.07
2022-11-21T14:19:28.133Z,1.60
2022-11-21T14:21:55.481Z,2.13
2022-11-21T14:24:22.724Z,1.87
2022-11-21T14:26:50.973Z,1.90
2022-11-21T14:29:18.625Z,1.50
2022-11-21T14:31:47.220Z,1.57
2022-11-21T14:34:24.262Z,1.73
2022-11-21T14:36:51.474Z,1.60
2022-11-21T14:39:36.920Z,1.77
2022-11-21T14:42:07.080Z,1.70
2022-11-21T14:44:34.240Z,2.10
2022-11-21T14:47:09.490Z,1.67
2022-11-21T14:49:39.006Z,2.00
2022-11-21T14:52:16.875Z,1.90
2022-11-21T14:55:06.372Z,1.50
2022-11-21T14:57:36.499Z,1.70
2022-11-21T15:00:06.000Z,1.80
2022-11-21T15:02:33.634Z,1.30
2022-11-21T15:05:03.312Z,1.90
2022-11-21T15:07:36.174Z,1.87
2022-11-21T15:12:53.828Z,1.73
2022-11-21T15:15:31.668Z,2.13
2022-11-21T15:20:48.627Z,1.77
2022-11-21T15:23:25.914Z,1.80
2022-11-21T15:25:56.596Z,1.77
2022-11-21T15:28:26.645Z,1.50
2022-11-21T15:31:11.030Z,2.00
2022-11-21T15:34:12.539Z,1.50
2022-11-21T15:36:41.602Z,2.23
2022-11-21T15:39:14.737Z,1.77
2022-11-21T15:41:41.906Z,1.97
2022-11-21T15:44:23.899Z,2.47
2022-11-21T15:46:53.809Z,1.60
2022-11-21T15:49:36.146Z,2.10
2022-11-21T15:52:11.337Z,2.20
2022-11-21T15:54:38.972Z,2.20
2022-11-21T15:57:06.052Z,1.77
2022-11-21T15:59:33.231Z,2.40
2022-11-21T16:02:00.327Z,2.50
2022-11-21T16:04:27.435Z,2.93
2022-11-21T16:06:54.941Z,2.50
2022-11-21T16:09:23.464Z,2.10
2022-11-21T16:11:50.534Z,2.03
2022-11-21T16:14:17.910Z,2.30
2022-11-21T16:16:45.113Z,2.17
2022-11-21T16:19:13.009Z,2.17
2022-11-21T16:21:40.286Z,2.20
2022-11-21T16:24:07.516Z,2.30
2022-11-21T16:26:35.955Z,2.07
2022-11-21T16:29:03.029Z,1.97
2022-11-21T16:31:31.312Z,2.87
2022-11-21T16:33:58.509Z,2.23
2022-11-21T16:36:26.640Z,2.40
2022-11-21T16:38:53.804Z,2.20
2022-11-21T16:41:22.479Z,2.77
2022-11-21T16:43:51.625Z,2.70
2022-11-21T16:46:19.023Z,2.20
2022-11-21T16:48:46.097Z,1.87
2022-11-21T16:51:14.298Z,2.30
2022-11-21T16:53:42.155Z,2.70
2022-11-21T16:56:10.040Z,2.70
2022-11-21T16:58:37.593Z,2.43
2022-11-21T17:01:09.613Z,2.70
2022-11-21T17:03:37.119Z,2.10
2022-11-21T17:06:04.173Z,2.73
2022-11-21T17:08:31.252Z,2.73
2022-11-21T17:10:58.328Z,2.63
2022-11-21T17:13:25.408Z,2.67
2022-11-21T17:15:52.483Z,2.80
2022-11-21T17:18:20.925Z,2.50
2022-11-21T17:20:48.023Z,2.73
2022-11-21T17:23:15.125Z,2.07
2022-11-21T17:25:42.227Z,3.00
2022-11-21T17:28:09.293Z,2.20
2022-11-21T17:30:38.888Z,3.00
2022-11-21T17:33:05.990Z,3.60
2022-11-21T17:35:34.423Z,2.00
2022-11-21T17:38:01.493Z,2.70
2022-11-21T17:40:28.601Z,2.97
2022-11-21T17:42:55.707Z,2.20
2022-11-21T17:45:22.796Z,2.20
2022-11-21T17:47:49.883Z,3.10
2022-11-21T17:50:17.010Z,3.80
2022-11-21T17:52:45.436Z,2.60
2022-11-21T17:55:12.648Z,2.30
2022-11-21T17:57:39.748Z,2.43
2022-11-21T18:00:07.340Z,2.40
2022-11-21T18:02:35.414Z,2.97
2022-11-21T18:05:02.630Z,3.17
2022-11-21T18:07:29.757Z,2.90
2022-11-21T18:10:14.211Z,2.80
2022-11-21T18:12:45.290Z,3.00
2022-11-21T18:15:12.402Z,2.77
2022-11-21T18:17:39.498Z,2.60
2022-11-21T18:20:07.114Z,2.40
2022-11-21T18:22:34.224Z,2.60
2022-11-21T18:25:02.682Z,3.13
2022-11-21T18:27:29.737Z,2.00
2022-11-21T18:29:56.848Z,2.30
2022-11-21T18:32:23.937Z,2.83
2022-11-21T18:34:51.036Z,2.50
2022-11-21T18:37:18.129Z,2.70
2022-11-21T18:39:45.230Z,2.90
2022-11-21T18:42:13.640Z,3.57
2022-11-21T18:44:40.750Z,3.33
2022-11-21T18:47:19.734Z,3.37
2022-11-21T18:49:48.058Z,2.30
2022-11-21T18:52:15.204Z,3.33
2022-11-21T18:54:42.339Z,2.23
2022-11-21T18:57:09.428Z,3.53
2022-11-21T18:59:37.885Z,3.60
2022-11-21T19:02:05.036Z,2.63
2022-11-21T19:04:32.178Z,2.33
2022-11-21T19:06:59.237Z,2.90
2022-11-21T19:09:32.144Z,3.43
2022-11-21T19:11:59.709Z,2.60
2022-11-21T19:14:26.984Z,2.87
2022-11-21T19:16:55.602Z,2.90
2022-11-21T19:19:37.993Z,2.80
2022-11-21T19:22:05.119Z,2.60
2022-11-21T19:24:32.171Z,2.73
2022-11-21T19:26:59.255Z,4.40
2022-11-21T19:29:26.727Z,2.83
2022-11-21T19:31:55.371Z,3.47
2022-11-21T19:34:22.500Z,4.17
2022-11-21T19:36:49.598Z,2.70
2022-11-21T19:39:16.664Z,4.67
2022-11-21T19:41:43.761Z,3.50
2022-11-21T19:44:11.542Z,2.83
2022-11-21T19:46:39.526Z,4.17
2022-11-21T19:49:08.961Z,3.33
2022-11-21T19:51:37.258Z,3.57
2022-11-21T19:54:04.916Z,3.20
2022-11-21T19:56:32.004Z,3.23
2022-11-21T19:58:59.236Z,2.90
2022-11-21T20:01:27.060Z,2.60
2022-11-21T20:03:54.932Z,2.77
2022-11-21T20:06:24.294Z,2.97
2022-11-21T20:08:52.649Z,2.63
2022-11-21T20:11:19.830Z,3.50
2022-11-21T20:13:47.245Z,2.57
2022-11-21T20:16:18.309Z,3.00
2022-11-21T20:18:45.381Z,2.93
2022-11-21T20:21:12.910Z,3.43
2022-11-21T20:23:41.574Z,3.50
2022-11-21T20:26:09.405Z,2.73
2022-11-21T20:28:37.141Z,3.30
2022-11-21T20:31:05.069Z,3.23
2022-11-21T20:33:34.600Z,2.63
2022-11-21T20:36:03.195Z,3.60
2022-11-21T20:38:30.257Z,2.70
2022-11-21T20:40:58.703Z,2.97
2022-11-21T20:43:44.278Z,2.93
2022-11-21T20:46:18.707Z,4.20
2022-11-21T20:48:47.426Z,3.67
2022-11-21T20:54:03.775Z,3.50
2022-11-21T20:56:34.035Z,3.00
2022-11-21T20:59:01.321Z,3.70
2022-11-21T21:01:28.460Z,3.40
2022-11-21T21:03:56.022Z,3.77
2022-11-21T21:06:23.754Z,2.47
2022-11-21T21:08:51.247Z,3.40
2022-11-21T21:11:44.453Z,4.10
2022-11-21T21:14:07.912Z,3.63
2022-11-21T21:16:35.023Z,3.47
2022-11-21T21:19:02.208Z,3.40
2022-11-21T21:21:30.115Z,3.10
2022-11-21T21:23:58.048Z,2.57
2022-11-21T21:26:26.823Z,4.07
2022-11-21T21:28:53.976Z,3.73
2022-11-21T21:31:22.914Z,3.20
2022-11-21T21:33:50.397Z,3.10
2022-11-21T21:36:18.629Z,4.77
2022-11-21T21:38:46.113Z,3.60
2022-11-21T21:41:13.843Z,2.90
2022-11-21T21:43:41.116Z,4.00
2022-11-21T21:46:09.432Z,3.03
2022-11-21T21:48:38.151Z,3.17
2022-11-21T21:51:05.521Z,2.60
2022-11-21T21:53:35.547Z,4.17
2022-11-21T21:56:02.619Z,3.40
2022-11-21T21:58:29.696Z,2.37
2022-11-21T22:01:02.152Z,2.63
2022-11-21T22:03:29.255Z,2.70
2022-11-21T22:06:01.516Z,3.50
2022-11-21T22:08:30.255Z,3.30
2022-11-21T22:11:01.193Z,3.57
2022-11-21T22:13:28.301Z,3.23
2022-11-21T22:15:55.645Z,3.07
2022-11-21T22:18:22.757Z,3.40
2022-11-21T22:20:49.849Z,2.77
2022-11-21T22:23:18.315Z,2.40
2022-11-21T22:25:45.400Z,2.03
2022-11-21T22:28:12.476Z,2.77
2022-11-21T22:30:39.596Z,2.40
2022-11-21T22:33:06.747Z,2.83
2022-11-21T22:35:34.180Z,2.83
2022-11-21T22:38:01.463Z,3.00
2022-11-21T22:40:29.868Z,3.40
2022-11-21T22:42:56.986Z,3.13
2022-11-21T22:45:24.086Z,3.20
2022-11-21T22:47:51.187Z,3.07
2022-11-21T22:50:18.425Z,3.20
2022-11-21T22:52:45.603Z,3.90
2022-11-21T22:55:12.741Z,2.73
2022-11-21T22:57:41.218Z,4.00
2022-11-21T23:00:09.077Z,3.17
2022-11-21T23:02:36.119Z,2.83
2022-11-21T23:05:03.498Z,3.10
2022-11-21T23:07:31.040Z,2.17
2022-11-21T23:09:58.456Z,2.57
2022-11-21T23:12:25.934Z,2.63
2022-11-21T23:14:54.374Z,2.70
2022-11-21T23:17:21.429Z,3.00
2022-11-21T23:19:48.528Z,2.13
2022-11-21T23:22:15.630Z,2.37
2022-11-21T23:24:42.708Z,2.97
2022-11-21T23:27:09.831Z,2.37
2022-11-21T23:29:36.903Z,2.60
2022-11-21T23:32:05.641Z,2.80
2022-11-21T23:34:32.755Z,2.63
2022-11-21T23:36:59.886Z,3.13
2022-11-21T23:39:27.606Z,3.00
2022-11-21T23:41:54.977Z,2.93
2022-11-21T23:44:22.046Z,2.53
2022-11-21T23:46:50.091Z,3.10
2022-11-21T23:49:18.532Z,2.67
2022-11-21T23:51:45.637Z,2.73
2022-11-21T23:54:12.720Z,2.37
2022-11-21T23:56:39.825Z,2.67
2022-11-21T23:59:07.538Z,3.17
